Fdny M-6b — WDF9255 — position and weather

sailwx.info

Track history (hours):
 
Tides and Currents Weather Stations Pressure Air Temp Water Temp Dewpoint Dewpoint Depression Visibility Wind Speed Wind Dir Waves Ship Positions

Fdny M-6b

Owner: NEW YORK CITY FIRE DEPT, BROOKLYN, NY. More information available from US FCC via Universal Licensing System.

Last reported at 2018-Jul-17 13:46 UTC. Time now 2018-Aug-21 01:55 UTC.
Position N 40°42' W 073°58'.
Warning: this ship's position is 34 days out of date.

Length 11 m.

Type: Law enforcement. MMSI: 367503270.

Date/timePositionNaut miles runAvg speedWind from/ knotsBaromVisibWave heightAir tempDewpointWater temp
2018-Jul-17 13:46N 40°42' W 073°58'0 0.0
2018-Jul-15 22:12N 40°42' W 073°58'0 0.0
2018-Jul-15 22:00N 40°42' W 073°58'0 0.0
2018-Jul-15 21:30N 40°42' W 073°58'1 0.5
2018-Jul-15 20:23N 40°42' W 073°59'2 5.0
2018-Jul-15 20:00N 40°41' W 074°01'0 0.0
2018-Jul-15 19:29N 40°41' W 074°01'0 0.0
2018-Jul-15 19:00N 40°41' W 074°01'0 0.0
2018-Jul-15 18:30N 40°41' W 074°01'0 0.0
2018-Jul-15 17:57N 40°41' W 074°01'0 0.0
2018-Jul-15 17:30N 40°41' W 074°01'0 0.0
2018-Jul-15 17:00N 40°41' W 074°01'0 0.0
2018-Jul-15 16:29N 40°41' W 074°01'0 0.0
2018-Jul-15 16:00N 40°41' W 074°01'0 0.0
2018-Jul-15 15:29N 40°41' W 074°01'0 0.0
2018-Jul-15 15:00N 40°41' W 074°01'0 0.0
2018-Jul-15 14:30N 40°41' W 074°01'0 0.0
2018-Jul-15 13:57N 40°41' W 074°01'0 0.2
2018-Jul-15 13:30N 40°41' W 074°01'0 0.0
2018-Jul-15 13:00N 40°41' W 074°01'0 0.0
2018-Jul-15 12:29N 40°41' W 074°01'2 1.0
2018-Jul-15 10:08N 40°42' W 073°58'0 0.0
2018-Jul-15 09:59N 40°42' W 073°58'0 0.0
2018-Jul-15 09:28N 40°42' W 073°58'0 0.0
2018-Jul-15 09:00N 40°42' W 073°58'0 0.0
2018-Jul-15 08:30N 40°42' W 073°58'0 0.0
2018-Jul-15 08:00N 40°42' W 073°58'0 0.0
2018-Jul-15 07:30N 40°42' W 073°58'0 0.0
2018-Jul-15 07:00N 40°42' W 073°58'0 0.0
2018-Jul-15 06:30N 40°42' W 073°58'0 0.0
2018-Jul-15 06:00N 40°42' W 073°58'0 0.0
2018-Jul-15 05:30N 40°42' W 073°58'0 0.0
2018-Jul-15 05:00N 40°42' W 073°58'0 0.0
2018-Jul-15 04:30N 40°42' W 073°58'0 0.0
2018-Jul-15 04:00N 40°42' W 073°58'0 0.0
2018-Jul-15 03:30N 40°42' W 073°58'0 0.0
2018-Jul-15 03:00N 40°42' W 073°58'0 0.0
2018-Jul-15 02:27N 40°42' W 073°58'0 0.0
2018-Jul-15 02:00N 40°42' W 073°58'0 0.0
2018-Jul-15 01:30N 40°42' W 073°58'0 0.0
2018-Jul-15 01:00N 40°42' W 073°58'0 0.0
2018-Jul-15 00:30N 40°42' W 073°58'0 0.0
2018-Jul-15 00:00N 40°42' W 073°58'0 0.0
2018-Jul-14 23:30N 40°42' W 073°58'0 0.0
2018-Jul-14 23:00N 40°42' W 073°58'0 0.0
2018-Jul-14 22:30N 40°42' W 073°58'0 0.0
2018-Jul-14 22:00N 40°42' W 073°58'0 0.0
2018-Jul-14 21:30N 40°42' W 073°58'2 4.1
2018-Jul-14 21:00N 40°41' W 074°01'0 0.7
2018-Jul-14 20:30N 40°41' W 074°01'0 0.0
2018-Jul-14 19:53N 40°41' W 074°01'0 0.0
2018-Jul-14 19:30N 40°41' W 074°01'0 0.0
2018-Jul-14 19:00N 40°41' W 074°01'0 0.0
2018-Jul-14 18:30N 40°41' W 074°01'0 0.0
2018-Jul-14 17:55N 40°41' W 074°01'0 0.0
2018-Jul-14 17:30N 40°41' W 074°01'1 1.0
2018-Jul-14 17:00N 40°40' W 074°01'0 0.0
2018-Jul-14 16:30N 40°40' W 074°01'0 0.6
2018-Jul-14 16:01N 40°40' W 074°01'1 1.1
2018-Jul-14 15:30N 40°41' W 074°01'0 0.0
2018-Jul-14 15:00N 40°41' W 074°01'0 0.0
2018-Jul-14 14:31N 40°41' W 074°01'0 0.0
2018-Jul-14 13:30N 40°41' W 074°01'0 0.0
2018-Jul-14 13:00N 40°41' W 074°01'0 0.0
2018-Jul-14 12:30N 40°41' W 074°01'0 0.2
2018-Jul-14 12:00N 40°41' W 074°01'4 8.3
2018-Jul-14 11:30N 40°38' W 074°04'612.7
2018-Jul-14 11:00N 40°42' W 073°58'0 0.0
2018-Jul-14 10:30N 40°42' W 073°58'0 0.0
2018-Jul-14 10:00N 40°42' W 073°58'0 0.0
2018-Jul-14 09:30N 40°42' W 073°58'0 0.0
2018-Jul-14 09:00N 40°42' W 073°58'0 0.0
2018-Jul-14 08:30N 40°42' W 073°58'0 0.0
2018-Jul-14 08:00N 40°42' W 073°58'0 0.0
2018-Jul-14 07:30N 40°42' W 073°58'0 0.0
2018-Jul-14 07:00N 40°42' W 073°58'0 0.0
2018-Jul-14 06:30N 40°42' W 073°58'0 0.0
2018-Jul-14 06:00N 40°42' W 073°58'0 0.0
2018-Jul-14 05:30N 40°42' W 073°58'0 0.0
2018-Jul-14 05:00N 40°42' W 073°58'0 0.0
2018-Jul-14 04:30N 40°42' W 073°58'0 0.0
2018-Jul-14 04:01N 40°42' W 073°58'0 0.0
2018-Jul-14 03:30N 40°42' W 073°58'0 0.0
2018-Jul-14 03:00N 40°42' W 073°58'0 0.0
2018-Jul-14 02:30N 40°42' W 073°58'0 0.0
2018-Jul-14 02:00N 40°42' W 073°58'0 0.0
2018-Jul-14 01:30N 40°42' W 073°58'0 0.0
2018-Jul-14 01:00N 40°42' W 073°58'0 0.0
2018-Jul-14 00:30N 40°42' W 073°58'0 0.0
2018-Jul-14 00:00N 40°42' W 073°58'0 0.0
2018-Jul-13 23:30N 40°42' W 073°58'0 0.0
2018-Jul-13 23:00N 40°42' W 073°58'0 0.0
2018-Jul-13 22:30N 40°42' W 073°58'0 0.0
2018-Jul-13 22:00N 40°42' W 073°58'0 0.0
2018-Jul-13 21:30N 40°42' W 073°58'0 0.0
2018-Jul-13 21:00N 40°42' W 073°58'0 0.0
2018-Jul-13 20:30N 40°42' W 073°58'0 0.0
2018-Jul-13 20:00N 40°42' W 073°58'0 0.1
2018-Jul-13 19:30N 40°42' W 073°58'814.8
2018-Jul-13 18:56N 40°34' W 073°56'1 1.4
2018-Jul-13 18:06N 40°34' W 073°54'0 0.4
2018-Jul-13 17:43N 40°34' W 073°54'7 1.4
2018-Jul-13 12:53N 40°36' W 074°02'718.0
2018-Jul-13 12:30N 40°42' W 073°58'0 0.2
2018-Jul-13 12:00N 40°42' W 073°58'0 0.0
2018-Jul-13 11:30N 40°42' W 073°58'0 0.0
2018-Jul-13 11:00N 40°42' W 073°58'0 0.0
2018-Jul-13 10:30N 40°42' W 073°58'0 0.0
2018-Jul-13 10:00N 40°42' W 073°58'0 0.0
2018-Jul-13 09:30N 40°42' W 073°58'0 0.0
2018-Jul-13 09:00N 40°42' W 073°58'0 0.0
2018-Jul-13 08:30N 40°42' W 073°58'0 0.0
2018-Jul-13 08:00N 40°42' W 073°58'0 0.0
2018-Jul-13 07:30N 40°42' W 073°58'0 0.0
2018-Jul-13 07:00N 40°42' W 073°58'0 0.0
2018-Jul-13 06:30N 40°42' W 073°58'0 0.0
2018-Jul-13 06:00N 40°42' W 073°58'0 0.0
2018-Jul-13 05:30N 40°42' W 073°58'0 0.0
2018-Jul-13 05:00N 40°42' W 073°58'0 0.0
2018-Jul-13 04:30N 40°42' W 073°58'0 0.0
2018-Jul-13 04:00N 40°42' W 073°58'0 0.0
2018-Jul-13 03:30N 40°42' W 073°58'0 0.0
2018-Jul-13 03:00N 40°42' W 073°58'0 0.0
2018-Jul-13 02:30N 40°42' W 073°58'0 0.0
2018-Jul-13 02:00N 40°42' W 073°58'0 0.0
2018-Jul-13 01:30N 40°42' W 073°58'0 0.0
2018-Jul-13 01:00N 40°42' W 073°58'0 0.0
2018-Jul-13 00:30N 40°42' W 073°58'0 0.0
2018-Jul-13 00:00N 40°42' W 073°58'0 0.0
2018-Jul-12 23:30N 40°42' W 073°58'0 0.0
2018-Jul-12 23:00N 40°42' W 073°58'0 0.0
2018-Jul-12 22:30N 40°42' W 073°58'0 0.0
2018-Jul-12 22:00N 40°42' W 073°58'0 0.0
2018-Jul-12 21:30N 40°42' W 073°58'0 0.0
2018-Jul-12 21:00N 40°42' W 073°58'0 0.0
2018-Jul-12 20:30N 40°42' W 073°58'0 0.0
2018-Jul-12 20:00N 40°42' W 073°58'0 0.0
2018-Jul-12 19:30N 40°42' W 073°58'0 0.0
2018-Jul-12 19:00N 40°42' W 073°58'0 0.0
2018-Jul-12 18:30N 40°42' W 073°58'0 0.0
2018-Jul-12 18:00N 40°42' W 073°58'0 0.0
2018-Jul-12 17:30N 40°42' W 073°58'0 0.0
2018-Jul-12 17:00N 40°42' W 073°58'0 0.0
2018-Jul-12 16:30N 40°42' W 073°58'0 0.0
2018-Jul-12 16:00N 40°42' W 073°58'0 0.0
2018-Jul-12 15:30N 40°42' W 073°58'0 0.0
2018-Jul-12 15:00N 40°42' W 073°58'0 0.0
2018-Jul-12 14:30N 40°42' W 073°58'0 0.0
2018-Jul-12 14:00N 40°42' W 073°58'0 0.0
2018-Jul-12 13:30N 40°42' W 073°58'0 0.0
2018-Jul-12 13:00N 40°42' W 073°58'0 0.0
2018-Jul-12 12:30N 40°42' W 073°58'0 0.0
2018-Jul-12 12:00N 40°42' W 073°58'0 0.0
2018-Jul-12 11:30N 40°42' W 073°58'0 0.0
2018-Jul-12 11:00N 40°42' W 073°58'0 0.0
2018-Jul-12 10:30N 40°42' W 073°58'0 0.0
2018-Jul-12 10:00N 40°42' W 073°58'0 0.0
2018-Jul-12 09:30N 40°42' W 073°58'0 0.0
2018-Jul-12 09:00N 40°42' W 073°58'0 0.0
2018-Jul-12 08:30N 40°42' W 073°58'0 0.0
2018-Jul-12 08:00N 40°42' W 073°58'0 0.0
2018-Jul-12 07:30N 40°42' W 073°58'0 0.0
2018-Jul-12 07:00N 40°42' W 073°58'0 0.0
2018-Jul-12 06:30N 40°42' W 073°58'0 0.0
2018-Jul-12 06:00N 40°42' W 073°58'0 0.0
2018-Jul-12 05:30N 40°42' W 073°58'0 0.0
2018-Jul-12 05:00N 40°42' W 073°58'0 0.0
2018-Jul-12 04:30N 40°42' W 073°58'0 0.0
2018-Jul-12 04:00N 40°42' W 073°58'0 0.0
2018-Jul-12 03:30N 40°42' W 073°58'0 0.0
2018-Jul-12 03:00N 40°42' W 073°58'0 0.0
2018-Jul-12 02:30N 40°42' W 073°58'0 0.0
2018-Jul-12 02:00N 40°42' W 073°58'0 0.0
2018-Jul-12 01:30N 40°42' W 073°58'0 0.0
2018-Jul-12 01:00N 40°42' W 073°58'0 0.0
2018-Jul-12 00:30N 40°42' W 073°58'0 0.0
2018-Jul-12 00:00N 40°42' W 073°58'0 0.0
2018-Jul-11 23:30N 40°42' W 073°58'0 0.0
2018-Jul-11 23:00N 40°42' W 073°58'0 0.0
2018-Jul-11 22:30N 40°42' W 073°58'0 0.0
2018-Jul-11 22:00N 40°42' W 073°58'0 0.0
2018-Jul-11 21:30N 40°42' W 073°58'0 0.0
2018-Jul-11 21:00N 40°42' W 073°58'0 0.0
2018-Jul-11 20:30N 40°42' W 073°58'0 0.0
2018-Jul-11 20:00N 40°42' W 073°58'0 0.0
2018-Jul-11 19:30N 40°42' W 073°58'0 0.0
2018-Jul-11 19:00N 40°42' W 073°58'0 0.0
2018-Jul-11 18:30N 40°42' W 073°58'0 0.0
2018-Jul-11 18:00N 40°42' W 073°58'0 0.0
2018-Jul-11 17:30N 40°42' W 073°58'0 0.0
2018-Jul-11 17:00N 40°42' W 073°58'0 0.0
2018-Jul-11 16:30N 40°42' W 073°58'0 0.0
2018-Jul-11 16:00N 40°42' W 073°58'0 0.0
2018-Jul-11 15:30N 40°42' W 073°58'0 0.0
2018-Jul-11 15:00N 40°42' W 073°58'0 0.0
2018-Jul-11 14:30N 40°42' W 073°58'0 0.0
2018-Jul-11 14:00N 40°42' W 073°58'0 0.0
2018-Jul-11 13:30N 40°42' W 073°58'0 0.0
2018-Jul-11 13:00N 40°42' W 073°58'0 0.0
2018-Jul-11 12:30N 40°42' W 073°58'0 0.0
2018-Jul-11 12:00N 40°42' W 073°58'0 0.0
2018-Jul-11 11:30N 40°42' W 073°58'0 0.0
2018-Jul-11 11:00N 40°42' W 073°58'0 0.0
2018-Jul-11 10:30N 40°42' W 073°58'0 0.0
2018-Jul-11 10:00N 40°42' W 073°58'0 0.0
2018-Jul-11 09:30N 40°42' W 073°58'0 0.0
2018-Jul-11 09:00N 40°42' W 073°58'0 0.0
2018-Jul-11 08:30N 40°42' W 073°58'0 0.0
2018-Jul-11 08:00N 40°42' W 073°58'0 0.0
2018-Jul-11 07:30N 40°42' W 073°58'0 0.0
2018-Jul-11 07:00N 40°42' W 073°58'0 0.0
2018-Jul-11 06:30N 40°42' W 073°58'0 0.0
2018-Jul-11 06:00N 40°42' W 073°58'0 0.0
2018-Jul-11 05:30N 40°42' W 073°58'0 0.0
2018-Jul-11 05:00N 40°42' W 073°58'0 0.0
2018-Jul-11 04:30N 40°42' W 073°58'0 0.0
2018-Jul-11 04:00N 40°42' W 073°58'0 0.0
2018-Jul-11 03:30N 40°42' W 073°58'0 0.0
2018-Jul-11 03:00N 40°42' W 073°58'0 0.0
2018-Jul-11 02:30N 40°42' W 073°58'0 0.0
2018-Jul-11 02:00N 40°42' W 073°58'0 0.0
2018-Jul-11 01:30N 40°42' W 073°58'0 0.0
2018-Jul-11 01:00N 40°42' W 073°58'0 0.0
2018-Jul-11 00:30N 40°42' W 073°58'0 0.0
2018-Jul-11 00:00N 40°42' W 073°58'0 0.0
2018-Jul-10 23:30N 40°42' W 073°58'0 0.0
2018-Jul-10 23:00N 40°42' W 073°58'0 0.0
2018-Jul-10 22:30N 40°42' W 073°58'0 0.0
2018-Jul-10 22:00N 40°42' W 073°58'0 0.0
2018-Jul-10 21:30N 40°42' W 073°58'0 0.0
2018-Jul-10 21:00N 40°42' W 073°58'0 0.0
2018-Jul-10 20:30N 40°42' W 073°58'0 0.0
2018-Jul-10 20:00N 40°42' W 073°58'0 0.0
2018-Jul-10 19:30N 40°42' W 073°58'0 0.0
2018-Jul-10 19:00N 40°42' W 073°58'0 0.0
2018-Jul-10 18:30N 40°42' W 073°58'0 0.0
2018-Jul-10 18:00N 40°42' W 073°58'0 0.0
2018-Jul-10 17:30N 40°42' W 073°58'0 0.0
2018-Jul-10 17:00N 40°42' W 073°58'0 0.0
2018-Jul-10 16:30N 40°42' W 073°58'0 0.0
2018-Jul-10 16:00N 40°42' W 073°58'0 0.0
2018-Jul-10 15:30N 40°42' W 073°58'0 0.0
2018-Jul-10 15:00N 40°42' W 073°58'0 0.0
2018-Jul-10 14:30N 40°42' W 073°58'0 0.0
2018-Jul-10 14:00N 40°42' W 073°58'0 0.0
2018-Jul-10 13:30N 40°42' W 073°58'0 0.0
2018-Jul-10 13:00N 40°42' W 073°58'0 0.0
2018-Jul-10 12:30N 40°42' W 073°58'0 0.0
2018-Jul-10 12:00N 40°42' W 073°58'0 0.0
2018-Jul-10 11:30N 40°42' W 073°58'0 0.0
2018-Jul-10 11:00N 40°42' W 073°58'0 0.0
2018-Jul-10 10:30N 40°42' W 073°58'0 0.0
2018-Jul-10 10:00N 40°42' W 073°58'0 0.0
2018-Jul-10 09:30N 40°42' W 073°58'0 0.0
2018-Jul-10 09:00N 40°42' W 073°58'0 0.0
2018-Jul-10 08:30N 40°42' W 073°58'0 0.0
2018-Jul-10 08:00N 40°42' W 073°58'0 0.0
2018-Jul-10 07:30N 40°42' W 073°58'0 0.0
2018-Jul-10 07:00N 40°42' W 073°58'0 0.0
2018-Jul-10 06:30N 40°42' W 073°58'0 0.0
2018-Jul-10 06:00N 40°42' W 073°58'0 0.0
2018-Jul-10 05:30N 40°42' W 073°58'0 0.0
2018-Jul-10 05:00N 40°42' W 073°58'0 0.0
2018-Jul-10 04:30N 40°42' W 073°58'0 0.0
2018-Jul-10 04:00N 40°42' W 073°58'0 0.0
2018-Jul-10 03:30N 40°42' W 073°58'0 0.0
2018-Jul-10 03:00N 40°42' W 073°58'0 0.0
2018-Jul-10 02:30N 40°42' W 073°58'0 0.0
2018-Jul-10 02:00N 40°42' W 073°58'0 0.0
2018-Jul-10 01:30N 40°42' W 073°58'0 0.0
2018-Jul-10 01:00N 40°42' W 073°58'0 0.0
2018-Jul-10 00:30N 40°42' W 073°58'0 0.0
2018-Jul-10 00:00N 40°42' W 073°58'0 0.0
2018-Jul-09 23:30N 40°42' W 073°58'0 0.0
2018-Jul-09 23:00N 40°42' W 073°58'0 0.0
2018-Jul-09 22:30N 40°42' W 073°58'0 0.0
2018-Jul-09 22:00N 40°42' W 073°58'0 0.0
2018-Jul-09 21:30N 40°42' W 073°58'0 0.0
2018-Jul-09 21:00N 40°42' W 073°58'0 0.0
2018-Jul-09 20:30N 40°42' W 073°58'0 0.0
2018-Jul-09 20:00N 40°42' W 073°58'0 0.0
2018-Jul-09 19:30N 40°42' W 073°58'0 0.0
2018-Jul-09 19:00N 40°42' W 073°58'0 0.0
2018-Jul-09 18:30N 40°42' W 073°58'0 0.0
2018-Jul-09 18:00N 40°42' W 073°58'0 0.0
2018-Jul-09 17:30N 40°42' W 073°58'0 0.0
2018-Jul-09 17:00N 40°42' W 073°58'0 0.0
2018-Jul-09 16:30N 40°42' W 073°58'0 0.0
2018-Jul-09 16:00N 40°42' W 073°58'0 0.0
2018-Jul-09 15:30N 40°42' W 073°58'0 0.0
2018-Jul-09 15:00N 40°42' W 073°58'0 0.0
2018-Jul-09 14:30N 40°42' W 073°58'0 0.0
2018-Jul-09 14:00N 40°42' W 073°58'0 0.0
2018-Jul-09 13:30N 40°42' W 073°58'0 0.0
2018-Jul-09 13:00N 40°42' W 073°58'0 0.0
2018-Jul-09 12:30N 40°42' W 073°58'0 0.0
2018-Jul-09 12:00N 40°42' W 073°58'0 0.0
2018-Jul-09 11:30N 40°42' W 073°58'0 0.0
2018-Jul-09 11:00N 40°42' W 073°58'0 0.0
2018-Jul-09 10:30N 40°42' W 073°58'0 0.0
2018-Jul-09 10:00N 40°42' W 073°58'0 0.0
2018-Jul-09 09:30N 40°42' W 073°58'0 0.0
2018-Jul-09 09:00N 40°42' W 073°58'0 0.0
2018-Jul-09 08:30N 40°42' W 073°58'0 0.0
2018-Jul-09 08:00N 40°42' W 073°58'0 0.0
2018-Jul-09 07:30N 40°42' W 073°58'0 0.0
2018-Jul-09 07:00N 40°42' W 073°58'0 0.0
2018-Jul-09 06:30N 40°42' W 073°58'0 0.0
2018-Jul-09 06:00N 40°42' W 073°58'0 0.0
2018-Jul-09 05:30N 40°42' W 073°58'0 0.0
2018-Jul-09 05:00N 40°42' W 073°58'0 0.0
2018-Jul-09 04:30N 40°42' W 073°58'0 0.0
2018-Jul-09 04:00N 40°42' W 073°58'0 0.0
2018-Jul-09 03:29N 40°42' W 073°58'0 0.0
2018-Jul-09 03:00N 40°42' W 073°58'0 0.0
2018-Jul-09 02:30N 40°42' W 073°58'0 0.0
2018-Jul-09 02:00N 40°42' W 073°58'0 0.0
2018-Jul-09 01:30N 40°42' W 073°58'0 0.0
2018-Jul-09 01:00N 40°42' W 073°58'0 0.0
2018-Jul-09 00:30N 40°42' W 073°58'0 0.0
2018-Jul-09 00:00N 40°42' W 073°58'0 0.0
2018-Jul-08 23:30N 40°42' W 073°58'0 0.0
2018-Jul-08 23:00N 40°42' W 073°58'0 0.0
2018-Jul-08 22:30N 40°42' W 073°58'0 0.0
2018-Jul-08 22:00N 40°42' W 073°58'0 0.0
2018-Jul-08 20:24N 40°42' W 073°58'0 0.0
2018-Jul-08 19:54N 40°42' W 073°58'0 0.0
2018-Jul-08 19:27N 40°42' W 073°58'0 0.0
2018-Jul-08 16:17N 40°42' W 073°58'0 0.0
2018-Jul-08 15:53N 40°42' W 073°58'0 0.0
2018-Jul-08 15:29N 40°42' W 073°58'0 0.0
2018-Jul-08 14:59N 40°42' W 073°58'0 0.0
2018-Jul-08 14:26N 40°42' W 073°58'0 0.0
2018-Jul-08 13:59N 40°42' W 073°58'0 0.0
2018-Jul-08 13:29N 40°42' W 073°58'0 0.0
2018-Jul-08 12:59N 40°42' W 073°58'0 0.0
2018-Jul-08 12:29N 40°42' W 073°58'0 0.0
2018-Jul-08 11:59N 40°42' W 073°58'0 0.0
2018-Jul-08 11:26N 40°42' W 073°58'0 0.0
2018-Jul-08 10:50N 40°42' W 073°58'0 0.0
2018-Jul-08 10:29N 40°42' W 073°58'0 0.0
2018-Jul-08 09:59N 40°42' W 073°58'0 0.0
2018-Jul-08 09:30N 40°42' W 073°58'0 0.0
2018-Jul-08 09:00N 40°42' W 073°58'0 0.0
2018-Jul-08 08:30N 40°42' W 073°58'0 0.0
2018-Jul-08 08:00N 40°42' W 073°58'0 0.0
2018-Jul-08 07:30N 40°42' W 073°58'0 0.0
2018-Jul-08 07:00N 40°42' W 073°58'0 0.0
2018-Jul-08 06:30N 40°42' W 073°58'0 0.0
2018-Jul-08 06:00N 40°42' W 073°58'0 0.0
2018-Jul-08 05:30N 40°42' W 073°58'0 0.0
2018-Jul-08 05:00N 40°42' W 073°58'0 0.0
2018-Jul-08 04:30N 40°42' W 073°58'0 0.0
2018-Jul-08 04:00N 40°42' W 073°58'0 0.0
2018-Jul-08 03:30N 40°42' W 073°58'0 0.0
2018-Jul-08 03:00N 40°42' W 073°58'0 0.0
2018-Jul-08 02:30N 40°42' W 073°58'0 0.0
2018-Jul-08 02:00N 40°42' W 073°58'0 0.0
2018-Jul-08 01:30N 40°42' W 073°58'0 0.0
2018-Jul-08 01:00N 40°42' W 073°58'0 0.0
2018-Jul-08 00:30N 40°42' W 073°58'0 0.0
2018-Jul-08 00:00N 40°42' W 073°58'0 0.0
2018-Jul-07 23:30N 40°42' W 073°58'0 0.0
2018-Jul-07 23:00N 40°42' W 073°58'0 0.0
2018-Jul-07 22:30N 40°42' W 073°58'0 0.0
2018-Jul-07 22:00N 40°42' W 073°58'0 0.0
2018-Jul-07 21:30N 40°42' W 073°58'0 0.0
2018-Jul-07 21:00N 40°42' W 073°58'0 0.0
2018-Jul-07 20:30N 40°42' W 073°58'0 0.0
2018-Jul-07 20:00N 40°42' W 073°58'0 0.0
2018-Jul-07 19:30N 40°42' W 073°58'0 0.0
2018-Jul-07 19:00N 40°42' W 073°58'0 0.0
2018-Jul-07 18:30N 40°42' W 073°58'0 0.0
2018-Jul-07 17:57N 40°42' W 073°58'0 0.0
2018-Jul-07 17:30N 40°42' W 073°58'0 0.0
2018-Jul-07 17:00N 40°42' W 073°58'0 0.0
2018-Jul-07 16:30N 40°42' W 073°58'0 0.0
2018-Jul-07 16:00N 40°42' W 073°58'0 0.0
2018-Jul-07 15:30N 40°42' W 073°58'0 0.0
2018-Jul-07 15:00N 40°42' W 073°58'0 0.0
2018-Jul-07 14:30N 40°42' W 073°58'0 0.0
2018-Jul-07 14:00N 40°42' W 073°58'  
Track history (hours):
 
Tides and Currents Weather Stations Pressure Air Temp Water Temp Dewpoint Dewpoint Depression Visibility Wind Speed Wind Dir Waves Ship Positions

Fdny M-6b

Owner: NEW YORK CITY FIRE DEPT, BROOKLYN, NY. More information available from US FCC via Universal Licensing System.

Last reported at 2018-Jul-17 13:46 UTC. Time now 2018-Aug-21 01:55 UTC.
Position N 40°42' W 073°58'.
Warning: this ship's position is 34 days out of date.

Length 11 m.

Type: Law enforcement. MMSI: 367503270.

Date/timePositionNaut miles runAvg speedWind from/ knotsBaromVisibWave heightAir tempDewpointWater temp
2018-Jul-17 13:46N 40°42' W 073°58'0 0.0
2018-Jul-15 22:12N 40°42' W 073°58'0 0.0
2018-Jul-15 22:00N 40°42' W 073°58'0 0.0
2018-Jul-15 21:30N 40°42' W 073°58'1 0.5
2018-Jul-15 20:23N 40°42' W 073°59'2 5.0
2018-Jul-15 20:00N 40°41' W 074°01'0 0.0
2018-Jul-15 19:29N 40°41' W 074°01'0 0.0
2018-Jul-15 19:00N 40°41' W 074°01'0 0.0
2018-Jul-15 18:30N 40°41' W 074°01'0 0.0
2018-Jul-15 17:57N 40°41' W 074°01'0 0.0
2018-Jul-15 17:30N 40°41' W 074°01'0 0.0
2018-Jul-15 17:00N 40°41' W 074°01'0 0.0
2018-Jul-15 16:29N 40°41' W 074°01'0 0.0
2018-Jul-15 16:00N 40°41' W 074°01'0 0.0
2018-Jul-15 15:29N 40°41' W 074°01'0 0.0
2018-Jul-15 15:00N 40°41' W 074°01'0 0.0
2018-Jul-15 14:30N 40°41' W 074°01'0 0.0
2018-Jul-15 13:57N 40°41' W 074°01'0 0.2
2018-Jul-15 13:30N 40°41' W 074°01'0 0.0
2018-Jul-15 13:00N 40°41' W 074°01'0 0.0
2018-Jul-15 12:29N 40°41' W 074°01'2 1.0
2018-Jul-15 10:08N 40°42' W 073°58'0 0.0
2018-Jul-15 09:59N 40°42' W 073°58'0 0.0
2018-Jul-15 09:28N 40°42' W 073°58'0 0.0
2018-Jul-15 09:00N 40°42' W 073°58'0 0.0
2018-Jul-15 08:30N 40°42' W 073°58'0 0.0
2018-Jul-15 08:00N 40°42' W 073°58'0 0.0
2018-Jul-15 07:30N 40°42' W 073°58'0 0.0
2018-Jul-15 07:00N 40°42' W 073°58'0 0.0
2018-Jul-15 06:30N 40°42' W 073°58'0 0.0
2018-Jul-15 06:00N 40°42' W 073°58'0 0.0
2018-Jul-15 05:30N 40°42' W 073°58'0 0.0
2018-Jul-15 05:00N 40°42' W 073°58'0 0.0
2018-Jul-15 04:30N 40°42' W 073°58'0 0.0
2018-Jul-15 04:00N 40°42' W 073°58'0 0.0
2018-Jul-15 03:30N 40°42' W 073°58'0 0.0
2018-Jul-15 03:00N 40°42' W 073°58'0 0.0
2018-Jul-15 02:27N 40°42' W 073°58'0 0.0
2018-Jul-15 02:00N 40°42' W 073°58'0 0.0
2018-Jul-15 01:30N 40°42' W 073°58'0 0.0
2018-Jul-15 01:00N 40°42' W 073°58'0 0.0
2018-Jul-15 00:30N 40°42' W 073°58'0 0.0
2018-Jul-15 00:00N 40°42' W 073°58'0 0.0
2018-Jul-14 23:30N 40°42' W 073°58'0 0.0
2018-Jul-14 23:00N 40°42' W 073°58'0 0.0
2018-Jul-14 22:30N 40°42' W 073°58'0 0.0
2018-Jul-14 22:00N 40°42' W 073°58'0 0.0
2018-Jul-14 21:30N 40°42' W 073°58'2 4.1
2018-Jul-14 21:00N 40°41' W 074°01'0 0.7
2018-Jul-14 20:30N 40°41' W 074°01'0 0.0
2018-Jul-14 19:53N 40°41' W 074°01'0 0.0
2018-Jul-14 19:30N 40°41' W 074°01'0 0.0
2018-Jul-14 19:00N 40°41' W 074°01'0 0.0
2018-Jul-14 18:30N 40°41' W 074°01'0 0.0
2018-Jul-14 17:55N 40°41' W 074°01'0 0.0
2018-Jul-14 17:30N 40°41' W 074°01'1 1.0
2018-Jul-14 17:00N 40°40' W 074°01'0 0.0
2018-Jul-14 16:30N 40°40' W 074°01'0 0.6
2018-Jul-14 16:01N 40°40' W 074°01'1 1.1
2018-Jul-14 15:30N 40°41' W 074°01'0 0.0
2018-Jul-14 15:00N 40°41' W 074°01'0 0.0
2018-Jul-14 14:31N 40°41' W 074°01'0 0.0
2018-Jul-14 13:30N 40°41' W 074°01'0 0.0
2018-Jul-14 13:00N 40°41' W 074°01'0 0.0
2018-Jul-14 12:30N 40°41' W 074°01'0 0.2
2018-Jul-14 12:00N 40°41' W 074°01'4 8.3
2018-Jul-14 11:30N 40°38' W 074°04'612.7
2018-Jul-14 11:00N 40°42' W 073°58'0 0.0
2018-Jul-14 10:30N 40°42' W 073°58'0 0.0
2018-Jul-14 10:00N 40°42' W 073°58'0 0.0
2018-Jul-14 09:30N 40°42' W 073°58'0 0.0
2018-Jul-14 09:00N 40°42' W 073°58'0 0.0
2018-Jul-14 08:30N 40°42' W 073°58'0 0.0
2018-Jul-14 08:00N 40°42' W 073°58'0 0.0
2018-Jul-14 07:30N 40°42' W 073°58'0 0.0
2018-Jul-14 07:00N 40°42' W 073°58'0 0.0
2018-Jul-14 06:30N 40°42' W 073°58'0 0.0
2018-Jul-14 06:00N 40°42' W 073°58'0 0.0
2018-Jul-14 05:30N 40°42' W 073°58'0 0.0
2018-Jul-14 05:00N 40°42' W 073°58'0 0.0
2018-Jul-14 04:30N 40°42' W 073°58'0 0.0
2018-Jul-14 04:01N 40°42' W 073°58'0 0.0
2018-Jul-14 03:30N 40°42' W 073°58'0 0.0
2018-Jul-14 03:00N 40°42' W 073°58'0 0.0
2018-Jul-14 02:30N 40°42' W 073°58'0 0.0
2018-Jul-14 02:00N 40°42' W 073°58'0 0.0
2018-Jul-14 01:30N 40°42' W 073°58'0 0.0
2018-Jul-14 01:00N 40°42' W 073°58'0 0.0
2018-Jul-14 00:30N 40°42' W 073°58'0 0.0
2018-Jul-14 00:00N 40°42' W 073°58'0 0.0
2018-Jul-13 23:30N 40°42' W 073°58'0 0.0
2018-Jul-13 23:00N 40°42' W 073°58'0 0.0
2018-Jul-13 22:30N 40°42' W 073°58'0 0.0
2018-Jul-13 22:00N 40°42' W 073°58'0 0.0
2018-Jul-13 21:30N 40°42' W 073°58'0 0.0
2018-Jul-13 21:00N 40°42' W 073°58'0 0.0
2018-Jul-13 20:30N 40°42' W 073°58'0 0.0
2018-Jul-13 20:00N 40°42' W 073°58'0 0.1
2018-Jul-13 19:30N 40°42' W 073°58'814.8
2018-Jul-13 18:56N 40°34' W 073°56'1 1.4
2018-Jul-13 18:06N 40°34' W 073°54'0 0.4
2018-Jul-13 17:43N 40°34' W 073°54'7 1.4
2018-Jul-13 12:53N 40°36' W 074°02'718.0
2018-Jul-13 12:30N 40°42' W 073°58'0 0.2
2018-Jul-13 12:00N 40°42' W 073°58'0 0.0
2018-Jul-13 11:30N 40°42' W 073°58'0 0.0
2018-Jul-13 11:00N 40°42' W 073°58'0 0.0
2018-Jul-13 10:30N 40°42' W 073°58'0 0.0
2018-Jul-13 10:00N 40°42' W 073°58'0 0.0
2018-Jul-13 09:30N 40°42' W 073°58'0 0.0
2018-Jul-13 09:00N 40°42' W 073°58'0 0.0
2018-Jul-13 08:30N 40°42' W 073°58'0 0.0
2018-Jul-13 08:00N 40°42' W 073°58'0 0.0
2018-Jul-13 07:30N 40°42' W 073°58'0 0.0
2018-Jul-13 07:00N 40°42' W 073°58'0 0.0
2018-Jul-13 06:30N 40°42' W 073°58'0 0.0
2018-Jul-13 06:00N 40°42' W 073°58'0 0.0
2018-Jul-13 05:30N 40°42' W 073°58'0 0.0
2018-Jul-13 05:00N 40°42' W 073°58'0 0.0
2018-Jul-13 04:30N 40°42' W 073°58'0 0.0
2018-Jul-13 04:00N 40°42' W 073°58'0 0.0
2018-Jul-13 03:30N 40°42' W 073°58'0 0.0
2018-Jul-13 03:00N 40°42' W 073°58'0 0.0
2018-Jul-13 02:30N 40°42' W 073°58'0 0.0
2018-Jul-13 02:00N 40°42' W 073°58'0 0.0
2018-Jul-13 01:30N 40°42' W 073°58'0 0.0
2018-Jul-13 01:00N 40°42' W 073°58'0 0.0
2018-Jul-13 00:30N 40°42' W 073°58'0 0.0
2018-Jul-13 00:00N 40°42' W 073°58'0 0.0
2018-Jul-12 23:30N 40°42' W 073°58'0 0.0
2018-Jul-12 23:00N 40°42' W 073°58'0 0.0
2018-Jul-12 22:30N 40°42' W 073°58'0 0.0
2018-Jul-12 22:00N 40°42' W 073°58'0 0.0
2018-Jul-12 21:30N 40°42' W 073°58'0 0.0
2018-Jul-12 21:00N 40°42' W 073°58'0 0.0
2018-Jul-12 20:30N 40°42' W 073°58'0 0.0
2018-Jul-12 20:00N 40°42' W 073°58'0 0.0
2018-Jul-12 19:30N 40°42' W 073°58'0 0.0
2018-Jul-12 19:00N 40°42' W 073°58'0 0.0
2018-Jul-12 18:30N 40°42' W 073°58'0 0.0
2018-Jul-12 18:00N 40°42' W 073°58'0 0.0
2018-Jul-12 17:30N 40°42' W 073°58'0 0.0
2018-Jul-12 17:00N 40°42' W 073°58'0 0.0
2018-Jul-12 16:30N 40°42' W 073°58'0 0.0
2018-Jul-12 16:00N 40°42' W 073°58'0 0.0
2018-Jul-12 15:30N 40°42' W 073°58'0 0.0
2018-Jul-12 15:00N 40°42' W 073°58'0 0.0
2018-Jul-12 14:30N 40°42' W 073°58'0 0.0
2018-Jul-12 14:00N 40°42' W 073°58'0 0.0
2018-Jul-12 13:30N 40°42' W 073°58'0 0.0
2018-Jul-12 13:00N 40°42' W 073°58'0 0.0
2018-Jul-12 12:30N 40°42' W 073°58'0 0.0
2018-Jul-12 12:00N 40°42' W 073°58'0 0.0
2018-Jul-12 11:30N 40°42' W 073°58'0 0.0
2018-Jul-12 11:00N 40°42' W 073°58'0 0.0
2018-Jul-12 10:30N 40°42' W 073°58'0 0.0
2018-Jul-12 10:00N 40°42' W 073°58'0 0.0
2018-Jul-12 09:30N 40°42' W 073°58'0 0.0
2018-Jul-12 09:00N 40°42' W 073°58'0 0.0
2018-Jul-12 08:30N 40°42' W 073°58'0 0.0
2018-Jul-12 08:00N 40°42' W 073°58'0 0.0
2018-Jul-12 07:30N 40°42' W 073°58'0 0.0
2018-Jul-12 07:00N 40°42' W 073°58'0 0.0
2018-Jul-12 06:30N 40°42' W 073°58'0 0.0
2018-Jul-12 06:00N 40°42' W 073°58'0 0.0
2018-Jul-12 05:30N 40°42' W 073°58'0 0.0
2018-Jul-12 05:00N 40°42' W 073°58'0 0.0
2018-Jul-12 04:30N 40°42' W 073°58'0 0.0
2018-Jul-12 04:00N 40°42' W 073°58'0 0.0
2018-Jul-12 03:30N 40°42' W 073°58'0 0.0
2018-Jul-12 03:00N 40°42' W 073°58'0 0.0
2018-Jul-12 02:30N 40°42' W 073°58'0 0.0
2018-Jul-12 02:00N 40°42' W 073°58'0 0.0
2018-Jul-12 01:30N 40°42' W 073°58'0 0.0
2018-Jul-12 01:00N 40°42' W 073°58'0 0.0
2018-Jul-12 00:30N 40°42' W 073°58'0 0.0
2018-Jul-12 00:00N 40°42' W 073°58'0 0.0
2018-Jul-11 23:30N 40°42' W 073°58'0 0.0
2018-Jul-11 23:00N 40°42' W 073°58'0 0.0
2018-Jul-11 22:30N 40°42' W 073°58'0 0.0
2018-Jul-11 22:00N 40°42' W 073°58'0 0.0
2018-Jul-11 21:30N 40°42' W 073°58'0 0.0
2018-Jul-11 21:00N 40°42' W 073°58'0 0.0
2018-Jul-11 20:30N 40°42' W 073°58'0 0.0
2018-Jul-11 20:00N 40°42' W 073°58'0 0.0
2018-Jul-11 19:30N 40°42' W 073°58'0 0.0
2018-Jul-11 19:00N 40°42' W 073°58'0 0.0
2018-Jul-11 18:30N 40°42' W 073°58'0 0.0
2018-Jul-11 18:00N 40°42' W 073°58'0 0.0
2018-Jul-11 17:30N 40°42' W 073°58'0 0.0
2018-Jul-11 17:00N 40°42' W 073°58'0 0.0
2018-Jul-11 16:30N 40°42' W 073°58'0 0.0
2018-Jul-11 16:00N 40°42' W 073°58'0 0.0
2018-Jul-11 15:30N 40°42' W 073°58'0 0.0
2018-Jul-11 15:00N 40°42' W 073°58'0 0.0
2018-Jul-11 14:30N 40°42' W 073°58'0 0.0
2018-Jul-11 14:00N 40°42' W 073°58'0 0.0
2018-Jul-11 13:30N 40°42' W 073°58'0 0.0
2018-Jul-11 13:00N 40°42' W 073°58'0 0.0
2018-Jul-11 12:30N 40°42' W 073°58'0 0.0
2018-Jul-11 12:00N 40°42' W 073°58'0 0.0
2018-Jul-11 11:30N 40°42' W 073°58'0 0.0
2018-Jul-11 11:00N 40°42' W 073°58'0 0.0
2018-Jul-11 10:30N 40°42' W 073°58'0 0.0
2018-Jul-11 10:00N 40°42' W 073°58'0 0.0
2018-Jul-11 09:30N 40°42' W 073°58'0 0.0
2018-Jul-11 09:00N 40°42' W 073°58'0 0.0
2018-Jul-11 08:30N 40°42' W 073°58'0 0.0
2018-Jul-11 08:00N 40°42' W 073°58'0 0.0
2018-Jul-11 07:30N 40°42' W 073°58'0 0.0
2018-Jul-11 07:00N 40°42' W 073°58'0 0.0
2018-Jul-11 06:30N 40°42' W 073°58'0 0.0
2018-Jul-11 06:00N 40°42' W 073°58'0 0.0
2018-Jul-11 05:30N 40°42' W 073°58'0 0.0
2018-Jul-11 05:00N 40°42' W 073°58'0 0.0
2018-Jul-11 04:30N 40°42' W 073°58'0 0.0
2018-Jul-11 04:00N 40°42' W 073°58'0 0.0
2018-Jul-11 03:30N 40°42' W 073°58'0 0.0
2018-Jul-11 03:00N 40°42' W 073°58'0 0.0
2018-Jul-11 02:30N 40°42' W 073°58'0 0.0
2018-Jul-11 02:00N 40°42' W 073°58'0 0.0
2018-Jul-11 01:30N 40°42' W 073°58'0 0.0
2018-Jul-11 01:00N 40°42' W 073°58'0 0.0
2018-Jul-11 00:30N 40°42' W 073°58'0 0.0
2018-Jul-11 00:00N 40°42' W 073°58'0 0.0
2018-Jul-10 23:30N 40°42' W 073°58'0 0.0
2018-Jul-10 23:00N 40°42' W 073°58'0 0.0
2018-Jul-10 22:30N 40°42' W 073°58'0 0.0
2018-Jul-10 22:00N 40°42' W 073°58'0 0.0
2018-Jul-10 21:30N 40°42' W 073°58'0 0.0
2018-Jul-10 21:00N 40°42' W 073°58'0 0.0
2018-Jul-10 20:30N 40°42' W 073°58'0 0.0
2018-Jul-10 20:00N 40°42' W 073°58'0 0.0
2018-Jul-10 19:30N 40°42' W 073°58'0 0.0
2018-Jul-10 19:00N 40°42' W 073°58'0 0.0
2018-Jul-10 18:30N 40°42' W 073°58'0 0.0
2018-Jul-10 18:00N 40°42' W 073°58'0 0.0
2018-Jul-10 17:30N 40°42' W 073°58'0 0.0
2018-Jul-10 17:00N 40°42' W 073°58'0 0.0
2018-Jul-10 16:30N 40°42' W 073°58'0 0.0
2018-Jul-10 16:00N 40°42' W 073°58'0 0.0
2018-Jul-10 15:30N 40°42' W 073°58'0 0.0
2018-Jul-10 15:00N 40°42' W 073°58'0 0.0
2018-Jul-10 14:30N 40°42' W 073°58'0 0.0
2018-Jul-10 14:00N 40°42' W 073°58'0 0.0
2018-Jul-10 13:30N 40°42' W 073°58'0 0.0
2018-Jul-10 13:00N 40°42' W 073°58'0 0.0
2018-Jul-10 12:30N 40°42' W 073°58'0 0.0
2018-Jul-10 12:00N 40°42' W 073°58'0 0.0
2018-Jul-10 11:30N 40°42' W 073°58'0 0.0
2018-Jul-10 11:00N 40°42' W 073°58'0 0.0
2018-Jul-10 10:30N 40°42' W 073°58'0 0.0
2018-Jul-10 10:00N 40°42' W 073°58'0 0.0
2018-Jul-10 09:30N 40°42' W 073°58'0 0.0
2018-Jul-10 09:00N 40°42' W 073°58'0 0.0
2018-Jul-10 08:30N 40°42' W 073°58'0 0.0
2018-Jul-10 08:00N 40°42' W 073°58'0 0.0
2018-Jul-10 07:30N 40°42' W 073°58'0 0.0
2018-Jul-10 07:00N 40°42' W 073°58'0 0.0
2018-Jul-10 06:30N 40°42' W 073°58'0 0.0
2018-Jul-10 06:00N 40°42' W 073°58'0 0.0
2018-Jul-10 05:30N 40°42' W 073°58'0 0.0
2018-Jul-10 05:00N 40°42' W 073°58'0 0.0
2018-Jul-10 04:30N 40°42' W 073°58'0 0.0
2018-Jul-10 04:00N 40°42' W 073°58'0 0.0
2018-Jul-10 03:30N 40°42' W 073°58'0 0.0
2018-Jul-10 03:00N 40°42' W 073°58'0 0.0
2018-Jul-10 02:30N 40°42' W 073°58'0 0.0
2018-Jul-10 02:00N 40°42' W 073°58'0 0.0
2018-Jul-10 01:30N 40°42' W 073°58'0 0.0
2018-Jul-10 01:00N 40°42' W 073°58'0 0.0
2018-Jul-10 00:30N 40°42' W 073°58'0 0.0
2018-Jul-10 00:00N 40°42' W 073°58'0 0.0
2018-Jul-09 23:30N 40°42' W 073°58'0 0.0
2018-Jul-09 23:00N 40°42' W 073°58'0 0.0
2018-Jul-09 22:30N 40°42' W 073°58'0 0.0
2018-Jul-09 22:00N 40°42' W 073°58'0 0.0
2018-Jul-09 21:30N 40°42' W 073°58'0 0.0
2018-Jul-09 21:00N 40°42' W 073°58'0 0.0
2018-Jul-09 20:30N 40°42' W 073°58'0 0.0
2018-Jul-09 20:00N 40°42' W 073°58'0 0.0
2018-Jul-09 19:30N 40°42' W 073°58'0 0.0
2018-Jul-09 19:00N 40°42' W 073°58'0 0.0
2018-Jul-09 18:30N 40°42' W 073°58'0 0.0
2018-Jul-09 18:00N 40°42' W 073°58'0 0.0
2018-Jul-09 17:30N 40°42' W 073°58'0 0.0
2018-Jul-09 17:00N 40°42' W 073°58'0 0.0
2018-Jul-09 16:30N 40°42' W 073°58'0 0.0
2018-Jul-09 16:00N 40°42' W 073°58'0 0.0
2018-Jul-09 15:30N 40°42' W 073°58'0 0.0
2018-Jul-09 15:00N 40°42' W 073°58'0 0.0
2018-Jul-09 14:30N 40°42' W 073°58'0 0.0
2018-Jul-09 14:00N 40°42' W 073°58'0 0.0
2018-Jul-09 13:30N 40°42' W 073°58'0 0.0
2018-Jul-09 13:00N 40°42' W 073°58'0 0.0
2018-Jul-09 12:30N 40°42' W 073°58'0 0.0
2018-Jul-09 12:00N 40°42' W 073°58'0 0.0
2018-Jul-09 11:30N 40°42' W 073°58'0 0.0
2018-Jul-09 11:00N 40°42' W 073°58'0 0.0
2018-Jul-09 10:30N 40°42' W 073°58'0 0.0
2018-Jul-09 10:00N 40°42' W 073°58'0 0.0
2018-Jul-09 09:30N 40°42' W 073°58'0 0.0
2018-Jul-09 09:00N 40°42' W 073°58'0 0.0
2018-Jul-09 08:30N 40°42' W 073°58'0 0.0
2018-Jul-09 08:00N 40°42' W 073°58'0 0.0
2018-Jul-09 07:30N 40°42' W 073°58'0 0.0
2018-Jul-09 07:00N 40°42' W 073°58'0 0.0
2018-Jul-09 06:30N 40°42' W 073°58'0 0.0
2018-Jul-09 06:00N 40°42' W 073°58'0 0.0
2018-Jul-09 05:30N 40°42' W 073°58'0 0.0
2018-Jul-09 05:00N 40°42' W 073°58'0 0.0
2018-Jul-09 04:30N 40°42' W 073°58'0 0.0
2018-Jul-09 04:00N 40°42' W 073°58'0 0.0
2018-Jul-09 03:29N 40°42' W 073°58'0 0.0
2018-Jul-09 03:00N 40°42' W 073°58'0 0.0
2018-Jul-09 02:30N 40°42' W 073°58'0 0.0
2018-Jul-09 02:00N 40°42' W 073°58'0 0.0
2018-Jul-09 01:30N 40°42' W 073°58'0 0.0
2018-Jul-09 01:00N 40°42' W 073°58'0 0.0
2018-Jul-09 00:30N 40°42' W 073°58'0 0.0
2018-Jul-09 00:00N 40°42' W 073°58'0 0.0
2018-Jul-08 23:30N 40°42' W 073°58'0 0.0
2018-Jul-08 23:00N 40°42' W 073°58'0 0.0
2018-Jul-08 22:30N 40°42' W 073°58'0 0.0
2018-Jul-08 22:00N 40°42' W 073°58'0 0.0
2018-Jul-08 20:24N 40°42' W 073°58'0 0.0
2018-Jul-08 19:54N 40°42' W 073°58'0 0.0
2018-Jul-08 19:27N 40°42' W 073°58'0 0.0
2018-Jul-08 16:17N 40°42' W 073°58'0 0.0
2018-Jul-08 15:53N 40°42' W 073°58'0 0.0
2018-Jul-08 15:29N 40°42' W 073°58'0 0.0
2018-Jul-08 14:59N 40°42' W 073°58'0 0.0
2018-Jul-08 14:26N 40°42' W 073°58'0 0.0
2018-Jul-08 13:59N 40°42' W 073°58'0 0.0
2018-Jul-08 13:29N 40°42' W 073°58'0 0.0
2018-Jul-08 12:59N 40°42' W 073°58'0 0.0
2018-Jul-08 12:29N 40°42' W 073°58'0 0.0
2018-Jul-08 11:59N 40°42' W 073°58'0 0.0
2018-Jul-08 11:26N 40°42' W 073°58'0 0.0
2018-Jul-08 10:50N 40°42' W 073°58'0 0.0
2018-Jul-08 10:29N 40°42' W 073°58'0 0.0
2018-Jul-08 09:59N 40°42' W 073°58'0 0.0
2018-Jul-08 09:30N 40°42' W 073°58'0 0.0
2018-Jul-08 09:00N 40°42' W 073°58'0 0.0
2018-Jul-08 08:30N 40°42' W 073°58'0 0.0
2018-Jul-08 08:00N 40°42' W 073°58'0 0.0
2018-Jul-08 07:30N 40°42' W 073°58'0 0.0
2018-Jul-08 07:00N 40°42' W 073°58'0 0.0
2018-Jul-08 06:30N 40°42' W 073°58'0 0.0
2018-Jul-08 06:00N 40°42' W 073°58'0 0.0
2018-Jul-08 05:30N 40°42' W 073°58'0 0.0
2018-Jul-08 05:00N 40°42' W 073°58'0 0.0
2018-Jul-08 04:30N 40°42' W 073°58'0 0.0
2018-Jul-08 04:00N 40°42' W 073°58'0 0.0
2018-Jul-08 03:30N 40°42' W 073°58'0 0.0
2018-Jul-08 03:00N 40°42' W 073°58'0 0.0
2018-Jul-08 02:30N 40°42' W 073°58'0 0.0
2018-Jul-08 02:00N 40°42' W 073°58'0 0.0
2018-Jul-08 01:30N 40°42' W 073°58'0 0.0
2018-Jul-08 01:00N 40°42' W 073°58'0 0.0
2018-Jul-08 00:30N 40°42' W 073°58'0 0.0
2018-Jul-08 00:00N 40°42' W 073°58'0 0.0
2018-Jul-07 23:30N 40°42' W 073°58'0 0.0
2018-Jul-07 23:00N 40°42' W 073°58'0 0.0
2018-Jul-07 22:30N 40°42' W 073°58'0 0.0
2018-Jul-07 22:00N 40°42' W 073°58'0 0.0
2018-Jul-07 21:30N 40°42' W 073°58'0 0.0
2018-Jul-07 21:00N 40°42' W 073°58'0 0.0
2018-Jul-07 20:30N 40°42' W 073°58'0 0.0
2018-Jul-07 20:00N 40°42' W 073°58'0 0.0
2018-Jul-07 19:30N 40°42' W 073°58'0 0.0
2018-Jul-07 19:00N 40°42' W 073°58'0 0.0
2018-Jul-07 18:30N 40°42' W 073°58'0 0.0
2018-Jul-07 17:57N 40°42' W 073°58'0 0.0
2018-Jul-07 17:30N 40°42' W 073°58'0 0.0
2018-Jul-07 17:00N 40°42' W 073°58'0 0.0
2018-Jul-07 16:30N 40°42' W 073°58'0 0.0
2018-Jul-07 16:00N 40°42' W 073°58'0 0.0
2018-Jul-07 15:30N 40°42' W 073°58'0 0.0
2018-Jul-07 15:00N 40°42' W 073°58'0 0.0
2018-Jul-07 14:30N 40°42' W 073°58'0 0.0
2018-Jul-07 14:00N 40°42' W 073°58'  

Dump ship's entire track history